sensor_id;sensor_type;location;lat;lon;timestamp;P1;durP1;ratioP1;P2;durP2;ratioP2
71125;SDS011;58785;55.566;38.058;2024-01-15T00:00:17;9.10;;;2.45;;
71125;SDS011;58785;55.566;38.058;2024-01-15T00:02:43;4.30;;;1.60;;
71125;SDS011;58785;55.566;38.058;2024-01-15T00:05:09;7.75;;;2.28;;
71125;SDS011;58785;55.566;38.058;2024-01-15T00:07:35;6.00;;;2.07;;
71125;SDS011;58785;55.566;38.058;2024-01-15T00:10:01;8.77;;;2.70;;
71125;SDS011;58785;55.566;38.058;2024-01-15T00:12:29;6.43;;;2.00;;
71125;SDS011;58785;55.566;38.058;2024-01-15T00:14:55;4.80;;;2.00;;
71125;SDS011;58785;55.566;38.058;2024-01-15T00:17:20;6.60;;;2.00;;
71125;SDS011;58785;55.566;38.058;2024-01-15T00:19:46;11.37;;;2.57;;
71125;SDS011;58785;55.566;38.058;2024-01-15T00:22:12;8.65;;;2.80;;
71125;SDS011;58785;55.566;38.058;2024-01-15T00:24:37;6.10;;;1.83;;
71125;SDS011;58785;55.566;38.058;2024-01-15T00:27:03;6.40;;;2.22;;
71125;SDS011;58785;55.566;38.058;2024-01-15T00:29:29;6.10;;;2.23;;
71125;SDS011;58785;55.566;38.058;2024-01-15T00:31:54;6.53;;;2.13;;
71125;SDS011;58785;55.566;38.058;2024-01-15T00:34:20;6.63;;;2.30;;
71125;SDS011;58785;55.566;38.058;2024-01-15T00:36:45;4.63;;;2.03;;
71125;SDS011;58785;55.566;38.058;2024-01-15T00:39:11;4.37;;;1.40;;
71125;SDS011;58785;55.566;38.058;2024-01-15T00:41:37;9.50;;;1.67;;
71125;SDS011;58785;55.566;38.058;2024-01-15T00:44:02;11.45;;;2.72;;
71125;SDS011;58785;55.566;38.058;2024-01-15T00:46:28;7.53;;;2.23;;
71125;SDS011;58785;55.566;38.058;2024-01-15T00:48:54;10.05;;;1.85;;
71125;SDS011;58785;55.566;38.058;2024-01-15T00:51:19;11.13;;;2.07;;
71125;SDS011;58785;55.566;38.058;2024-01-15T00:53:45;5.07;;;1.98;;
71125;SDS011;58785;55.566;38.058;2024-01-15T00:56:11;6.90;;;2.47;;
71125;SDS011;58785;55.566;38.058;2024-01-15T00:58:38;7.20;;;2.53;;
71125;SDS011;58785;55.566;38.058;2024-01-15T01:01:03;8.35;;;2.67;;
71125;SDS011;58785;55.566;38.058;2024-01-15T01:03:29;5.93;;;2.23;;
71125;SDS011;58785;55.566;38.058;2024-01-15T01:05:55;7.63;;;2.28;;
71125;SDS011;58785;55.566;38.058;2024-01-15T01:08:22;5.25;;;1.58;;
71125;SDS011;58785;55.566;38.058;2024-01-15T01:10:49;7.53;;;2.10;;
71125;SDS011;58785;55.566;38.058;2024-01-15T01:13:14;6.20;;;2.20;;
71125;SDS011;58785;55.566;38.058;2024-01-15T01:15:40;7.13;;;2.87;;
71125;SDS011;58785;55.566;38.058;2024-01-15T01:18:06;7.95;;;2.60;;
71125;SDS011;58785;55.566;38.058;2024-01-15T01:20:31;8.00;;;3.70;;
71125;SDS011;58785;55.566;38.058;2024-01-15T01:22:57;6.53;;;1.73;;
71125;SDS011;58785;55.566;38.058;2024-01-15T01:25:23;7.05;;;2.35;;
71125;SDS011;58785;55.566;38.058;2024-01-15T01:27:48;7.23;;;1.80;;
71125;SDS011;58785;55.566;38.058;2024-01-15T01:30:14;6.10;;;2.15;;
71125;SDS011;58785;55.566;38.058;2024-01-15T01:32:40;7.97;;;2.25;;
71125;SDS011;58785;55.566;38.058;2024-01-15T01:35:06;5.57;;;2.03;;
71125;SDS011;58785;55.566;38.058;2024-01-15T01:37:31;5.18;;;2.10;;
71125;SDS011;58785;55.566;38.058;2024-01-15T01:39:58;8.65;;;1.85;;
71125;SDS011;58785;55.566;38.058;2024-01-15T01:42:23;8.07;;;2.90;;
71125;SDS011;58785;55.566;38.058;2024-01-15T01:44:49;5.67;;;1.73;;
71125;SDS011;58785;55.566;38.058;2024-01-15T01:47:15;7.00;;;2.17;;
71125;SDS011;58785;55.566;38.058;2024-01-15T01:49:40;5.27;;;1.73;;
71125;SDS011;58785;55.566;38.058;2024-01-15T01:52:07;9.10;;;2.10;;
71125;SDS011;58785;55.566;38.058;2024-01-15T01:54:34;6.63;;;1.77;;
71125;SDS011;58785;55.566;38.058;2024-01-15T01:57:01;9.18;;;2.03;;
71125;SDS011;58785;55.566;38.058;2024-01-15T01:59:30;7.05;;;2.05;;
71125;SDS011;58785;55.566;38.058;2024-01-15T02:01:56;6.93;;;2.50;;
71125;SDS011;58785;55.566;38.058;2024-01-15T02:04:23;7.85;;;1.98;;
71125;SDS011;58785;55.566;38.058;2024-01-15T02:06:50;5.88;;;2.28;;
71125;SDS011;58785;55.566;38.058;2024-01-15T02:09:17;7.28;;;2.90;;
71125;SDS011;58785;55.566;38.058;2024-01-15T02:11:45;10.15;;;3.30;;
71125;SDS011;58785;55.566;38.058;2024-01-15T02:14:12;6.60;;;2.33;;
71125;SDS011;58785;55.566;38.058;2024-01-15T02:16:38;7.63;;;2.42;;
71125;SDS011;58785;55.566;38.058;2024-01-15T02:19:04;5.90;;;1.95;;
71125;SDS011;58785;55.566;38.058;2024-01-15T02:21:31;8.33;;;1.80;;
71125;SDS011;58785;55.566;38.058;2024-01-15T02:24:06;7.35;;;2.05;;
71125;SDS011;58785;55.566;38.058;2024-01-15T02:26:32;6.65;;;2.22;;
71125;SDS011;58785;55.566;38.058;2024-01-15T02:29:01;7.53;;;2.72;;
71125;SDS011;58785;55.566;38.058;2024-01-15T02:31:28;11.97;;;2.93;;
71125;SDS011;58785;55.566;38.058;2024-01-15T02:33:53;11.93;;;3.22;;
71125;SDS011;58785;55.566;38.058;2024-01-15T02:36:19;6.60;;;2.73;;
71125;SDS011;58785;55.566;38.058;2024-01-15T02:38:45;6.13;;;2.45;;
71125;SDS011;58785;55.566;38.058;2024-01-15T02:41:10;7.90;;;2.33;;
71125;SDS011;58785;55.566;38.058;2024-01-15T02:43:39;8.38;;;2.55;;
71125;SDS011;58785;55.566;38.058;2024-01-15T02:46:05;6.03;;;2.42;;
71125;SDS011;58785;55.566;38.058;2024-01-15T02:48:31;8.47;;;2.47;;
71125;SDS011;58785;55.566;38.058;2024-01-15T02:50:57;5.40;;;1.48;;
71125;SDS011;58785;55.566;38.058;2024-01-15T02:53:23;8.63;;;3.17;;
71125;SDS011;58785;55.566;38.058;2024-01-15T02:55:49;9.23;;;2.58;;
71125;SDS011;58785;55.566;38.058;2024-01-15T02:58:14;6.47;;;2.53;;
71125;SDS011;58785;55.566;38.058;2024-01-15T03:00:40;12.00;;;2.95;;
71125;SDS011;58785;55.566;38.058;2024-01-15T03:03:06;5.03;;;1.70;;
71125;SDS011;58785;55.566;38.058;2024-01-15T03:05:32;8.18;;;2.17;;
71125;SDS011;58785;55.566;38.058;2024-01-15T03:07:57;10.27;;;3.13;;
71125;SDS011;58785;55.566;38.058;2024-01-15T03:10:23;7.80;;;2.65;;
71125;SDS011;58785;55.566;38.058;2024-01-15T03:12:49;10.17;;;2.80;;
71125;SDS011;58785;55.566;38.058;2024-01-15T03:15:14;6.78;;;2.65;;
71125;SDS011;58785;55.566;38.058;2024-01-15T03:17:41;7.63;;;3.27;;
71125;SDS011;58785;55.566;38.058;2024-01-15T03:20:08;7.90;;;2.15;;
71125;SDS011;58785;55.566;38.058;2024-01-15T03:22:34;6.40;;;2.10;;
71125;SDS011;58785;55.566;38.058;2024-01-15T03:24:59;6.03;;;2.33;;
71125;SDS011;58785;55.566;38.058;2024-01-15T03:27:25;8.65;;;3.05;;
71125;SDS011;58785;55.566;38.058;2024-01-15T03:29:51;5.33;;;1.83;;
71125;SDS011;58785;55.566;38.058;2024-01-15T03:32:17;6.43;;;1.67;;
71125;SDS011;58785;55.566;38.058;2024-01-15T03:34:43;3.58;;;0.40;;
71125;SDS011;58785;55.566;38.058;2024-01-15T03:37:08;8.57;;;1.70;;
71125;SDS011;58785;55.566;38.058;2024-01-15T03:39:34;8.25;;;3.13;;
71125;SDS011;58785;55.566;38.058;2024-01-15T03:42:00;6.40;;;2.37;;
71125;SDS011;58785;55.566;38.058;2024-01-15T03:44:25;8.33;;;2.23;;
71125;SDS011;58785;55.566;38.058;2024-01-15T03:46:51;5.28;;;1.98;;
71125;SDS011;58785;55.566;38.058;2024-01-15T03:49:17;7.90;;;2.63;;
71125;SDS011;58785;55.566;38.058;2024-01-15T03:51:42;13.25;;;4.03;;
71125;SDS011;58785;55.566;38.058;2024-01-15T03:54:08;8.93;;;2.87;;
71125;SDS011;58785;55.566;38.058;2024-01-15T03:56:33;7.45;;;2.67;;
71125;SDS011;58785;55.566;38.058;2024-01-15T03:59:00;9.77;;;3.60;;
71125;SDS011;58785;55.566;38.058;2024-01-15T04:01:25;7.55;;;2.63;;
71125;SDS011;58785;55.566;38.058;2024-01-15T04:03:51;8.63;;;2.77;;
71125;SDS011;58785;55.566;38.058;2024-01-15T04:06:16;6.60;;;4.07;;
71125;SDS011;58785;55.566;38.058;2024-01-15T04:08:42;11.33;;;4.83;;
71125;SDS011;58785;55.566;38.058;2024-01-15T04:11:08;8.38;;;3.03;;
71125;SDS011;58785;55.566;38.058;2024-01-15T04:13:33;7.13;;;2.97;;
71125;SDS011;58785;55.566;38.058;2024-01-15T04:15:59;7.10;;;2.63;;
71125;SDS011;58785;55.566;38.058;2024-01-15T04:18:25;10.30;;;2.70;;
71125;SDS011;58785;55.566;38.058;2024-01-15T04:20:51;7.80;;;3.72;;
71125;SDS011;58785;55.566;38.058;2024-01-15T04:23:16;12.17;;;4.03;;
71125;SDS011;58785;55.566;38.058;2024-01-15T04:25:42;10.65;;;3.72;;
71125;SDS011;58785;55.566;38.058;2024-01-15T04:28:08;12.60;;;3.83;;
71125;SDS011;58785;55.566;38.058;2024-01-15T04:30:34;10.50;;;2.55;;
71125;SDS011;58785;55.566;38.058;2024-01-15T04:33:00;7.97;;;3.67;;
71125;SDS011;58785;55.566;38.058;2024-01-15T04:35:25;8.10;;;3.50;;
71125;SDS011;58785;55.566;38.058;2024-01-15T04:37:51;13.33;;;3.87;;
71125;SDS011;58785;55.566;38.058;2024-01-15T04:40:17;7.35;;;2.45;;
71125;SDS011;58785;55.566;38.058;2024-01-15T04:42:43;14.02;;;3.88;;
71125;SDS011;58785;55.566;38.058;2024-01-15T04:45:11;11.50;;;2.90;;
71125;SDS011;58785;55.566;38.058;2024-01-15T04:47:36;8.95;;;3.28;;
71125;SDS011;58785;55.566;38.058;2024-01-15T04:50:03;8.13;;;2.78;;
71125;SDS011;58785;55.566;38.058;2024-01-15T04:52:30;6.30;;;1.87;;
71125;SDS011;58785;55.566;38.058;2024-01-15T04:54:55;10.00;;;3.45;;
71125;SDS011;58785;55.566;38.058;2024-01-15T04:57:21;8.50;;;2.70;;
71125;SDS011;58785;55.566;38.058;2024-01-15T04:59:46;17.07;;;3.37;;
71125;SDS011;58785;55.566;38.058;2024-01-15T05:02:12;12.45;;;3.92;;
71125;SDS011;58785;55.566;38.058;2024-01-15T05:04:38;15.57;;;3.42;;
71125;SDS011;58785;55.566;38.058;2024-01-15T05:07:04;8.05;;;2.80;;
71125;SDS011;58785;55.566;38.058;2024-01-15T05:09:30;8.70;;;3.37;;
71125;SDS011;58785;55.566;38.058;2024-01-15T05:11:56;7.22;;;3.28;;
71125;SDS011;58785;55.566;38.058;2024-01-15T05:14:21;9.50;;;3.53;;
71125;SDS011;58785;55.566;38.058;2024-01-15T05:16:47;14.48;;;3.55;;
71125;SDS011;58785;55.566;38.058;2024-01-15T05:19:14;7.75;;;3.08;;
71125;SDS011;58785;55.566;38.058;2024-01-15T05:21:40;11.93;;;4.43;;
71125;SDS011;58785;55.566;38.058;2024-01-15T05:24:07;12.98;;;3.53;;
71125;SDS011;58785;55.566;38.058;2024-01-15T05:26:33;9.35;;;4.00;;
71125;SDS011;58785;55.566;38.058;2024-01-15T05:28:59;9.03;;;3.27;;
71125;SDS011;58785;55.566;38.058;2024-01-15T05:31:24;6.82;;;2.25;;
71125;SDS011;58785;55.566;38.058;2024-01-15T05:33:50;6.80;;;2.20;;
71125;SDS011;58785;55.566;38.058;2024-01-15T05:36:16;8.93;;;3.17;;
71125;SDS011;58785;55.566;38.058;2024-01-15T05:38:41;8.60;;;3.43;;
71125;SDS011;58785;55.566;38.058;2024-01-15T05:41:07;7.88;;;3.65;;
71125;SDS011;58785;55.566;38.058;2024-01-15T05:43:33;11.60;;;4.53;;
71125;SDS011;58785;55.566;38.058;2024-01-15T05:45:58;12.17;;;3.60;;
71125;SDS011;58785;55.566;38.058;2024-01-15T05:48:24;6.72;;;2.28;;
71125;SDS011;58785;55.566;38.058;2024-01-15T05:50:49;17.70;;;4.90;;
71125;SDS011;58785;55.566;38.058;2024-01-15T05:53:15;8.95;;;3.30;;
71125;SDS011;58785;55.566;38.058;2024-01-15T05:55:41;9.67;;;2.97;;
71125;SDS011;58785;55.566;38.058;2024-01-15T05:58:06;13.05;;;4.15;;
71125;SDS011;58785;55.566;38.058;2024-01-15T06:00:32;8.13;;;2.63;;
71125;SDS011;58785;55.566;38.058;2024-01-15T06:03:01;9.25;;;3.20;;
71125;SDS011;58785;55.566;38.058;2024-01-15T06:05:27;9.65;;;3.17;;
71125;SDS011;58785;55.566;38.058;2024-01-15T06:07:52;11.30;;;3.67;;
71125;SDS011;58785;55.566;38.058;2024-01-15T06:10:18;11.95;;;3.35;;
71125;SDS011;58785;55.566;38.058;2024-01-15T06:12:44;10.60;;;4.70;;
71125;SDS011;58785;55.566;38.058;2024-01-15T06:15:10;7.03;;;2.70;;
71125;SDS011;58785;55.566;38.058;2024-01-15T06:17:35;11.52;;;3.83;;
71125;SDS011;58785;55.566;38.058;2024-01-15T06:20:01;8.97;;;4.30;;
71125;SDS011;58785;55.566;38.058;2024-01-15T06:22:29;7.70;;;2.08;;
71125;SDS011;58785;55.566;38.058;2024-01-15T06:24:54;6.73;;;2.37;;
71125;SDS011;58785;55.566;38.058;2024-01-15T06:27:21;11.35;;;3.30;;
71125;SDS011;58785;55.566;38.058;2024-01-15T06:29:47;9.85;;;2.83;;
71125;SDS011;58785;55.566;38.058;2024-01-15T06:32:13;9.63;;;3.63;;
71125;SDS011;58785;55.566;38.058;2024-01-15T06:34:39;14.53;;;3.87;;
71125;SDS011;58785;55.566;38.058;2024-01-15T06:37:04;9.85;;;3.35;;
71125;SDS011;58785;55.566;38.058;2024-01-15T06:39:30;9.77;;;4.00;;
71125;SDS011;58785;55.566;38.058;2024-01-15T06:41:56;9.20;;;3.63;;
71125;SDS011;58785;55.566;38.058;2024-01-15T06:44:21;12.63;;;3.87;;
71125;SDS011;58785;55.566;38.058;2024-01-15T06:46:47;12.13;;;4.32;;
71125;SDS011;58785;55.566;38.058;2024-01-15T06:49:13;8.18;;;3.45;;
71125;SDS011;58785;55.566;38.058;2024-01-15T06:51:39;6.70;;;2.80;;
71125;SDS011;58785;55.566;38.058;2024-01-15T06:54:05;7.95;;;3.58;;
71125;SDS011;58785;55.566;38.058;2024-01-15T06:56:31;9.07;;;3.83;;
71125;SDS011;58785;55.566;38.058;2024-01-15T06:58:58;13.53;;;4.90;;
71125;SDS011;58785;55.566;38.058;2024-01-15T07:01:24;12.30;;;3.78;;
71125;SDS011;58785;55.566;38.058;2024-01-15T07:03:49;13.75;;;4.53;;
71125;SDS011;58785;55.566;38.058;2024-01-15T07:06:15;11.40;;;4.43;;
71125;SDS011;58785;55.566;38.058;2024-01-15T07:08:42;8.93;;;3.35;;
71125;SDS011;58785;55.566;38.058;2024-01-15T07:11:08;11.05;;;3.42;;
71125;SDS011;58785;55.566;38.058;2024-01-15T07:13:34;12.20;;;3.88;;
71125;SDS011;58785;55.566;38.058;2024-01-15T07:16:02;8.90;;;3.53;;
71125;SDS011;58785;55.566;38.058;2024-01-15T07:18:28;8.20;;;2.90;;
71125;SDS011;58785;55.566;38.058;2024-01-15T07:20:54;12.52;;;3.83;;
71125;SDS011;58785;55.566;38.058;2024-01-15T07:23:20;11.07;;;4.83;;
71125;SDS011;58785;55.566;38.058;2024-01-15T07:25:45;11.10;;;3.17;;
71125;SDS011;58785;55.566;38.058;2024-01-15T07:28:11;6.93;;;2.17;;
71125;SDS011;58785;55.566;38.058;2024-01-15T07:30:37;9.57;;;3.65;;
71125;SDS011;58785;55.566;38.058;2024-01-15T07:33:04;8.80;;;3.63;;
71125;SDS011;58785;55.566;38.058;2024-01-15T07:35:31;13.13;;;3.95;;
71125;SDS011;58785;55.566;38.058;2024-01-15T07:37:57;11.38;;;3.15;;
71125;SDS011;58785;55.566;38.058;2024-01-15T07:40:23;13.10;;;4.30;;
71125;SDS011;58785;55.566;38.058;2024-01-15T07:42:50;10.30;;;3.90;;
71125;SDS011;58785;55.566;38.058;2024-01-15T07:45:16;11.73;;;4.05;;
71125;SDS011;58785;55.566;38.058;2024-01-15T07:47:42;10.57;;;4.10;;
71125;SDS011;58785;55.566;38.058;2024-01-15T07:50:08;9.55;;;2.85;;
71125;SDS011;58785;55.566;38.058;2024-01-15T07:52:34;10.17;;;3.67;;
71125;SDS011;58785;55.566;38.058;2024-01-15T07:54:59;10.23;;;4.15;;
71125;SDS011;58785;55.566;38.058;2024-01-15T07:57:25;10.52;;;3.80;;
71125;SDS011;58785;55.566;38.058;2024-01-15T07:59:52;15.17;;;3.90;;
71125;SDS011;58785;55.566;38.058;2024-01-15T08:02:17;9.00;;;3.53;;
71125;SDS011;58785;55.566;38.058;2024-01-15T08:04:43;10.97;;;3.20;;
71125;SDS011;58785;55.566;38.058;2024-01-15T08:07:09;10.05;;;3.45;;
71125;SDS011;58785;55.566;38.058;2024-01-15T08:09:35;17.00;;;4.68;;
71125;SDS011;58785;55.566;38.058;2024-01-15T08:12:00;10.17;;;3.43;;
71125;SDS011;58785;55.566;38.058;2024-01-15T08:14:26;11.50;;;3.65;;
71125;SDS011;58785;55.566;38.058;2024-01-15T08:16:52;10.93;;;3.37;;
71125;SDS011;58785;55.566;38.058;2024-01-15T08:19:17;12.40;;;4.32;;
71125;SDS011;58785;55.566;38.058;2024-01-15T08:21:45;9.93;;;3.87;;
71125;SDS011;58785;55.566;38.058;2024-01-15T08:24:10;12.32;;;4.18;;
71125;SDS011;58785;55.566;38.058;2024-01-15T08:26:36;11.50;;;4.13;;
71125;SDS011;58785;55.566;38.058;2024-01-15T08:29:02;11.00;;;3.60;;
71125;SDS011;58785;55.566;38.058;2024-01-15T08:31:27;10.07;;;3.67;;
71125;SDS011;58785;55.566;38.058;2024-01-15T08:33:53;10.60;;;4.30;;
71125;SDS011;58785;55.566;38.058;2024-01-15T08:36:18;11.47;;;3.70;;
71125;SDS011;58785;55.566;38.058;2024-01-15T08:38:44;9.83;;;3.17;;
71125;SDS011;58785;55.566;38.058;2024-01-15T08:41:10;9.97;;;3.60;;
71125;SDS011;58785;55.566;38.058;2024-01-15T08:43:35;8.77;;;2.95;;
71125;SDS011;58785;55.566;38.058;2024-01-15T08:46:02;12.70;;;4.57;;
71125;SDS011;58785;55.566;38.058;2024-01-15T08:48:28;12.10;;;4.28;;
71125;SDS011;58785;55.566;38.058;2024-01-15T08:50:54;8.57;;;3.87;;
71125;SDS011;58785;55.566;38.058;2024-01-15T08:53:20;9.48;;;4.07;;
71125;SDS011;58785;55.566;38.058;2024-01-15T08:55:47;10.85;;;3.92;;
71125;SDS011;58785;55.566;38.058;2024-01-15T08:58:13;12.23;;;4.25;;
71125;SDS011;58785;55.566;38.058;2024-01-15T09:00:39;10.73;;;3.47;;
71125;SDS011;58785;55.566;38.058;2024-01-15T09:03:05;9.47;;;4.00;;
71125;SDS011;58785;55.566;38.058;2024-01-15T09:05:32;13.40;;;3.80;;
71125;SDS011;58785;55.566;38.058;2024-01-15T09:07:57;11.95;;;4.63;;
71125;SDS011;58785;55.566;38.058;2024-01-15T09:10:23;12.63;;;5.00;;
71125;SDS011;58785;55.566;38.058;2024-01-15T09:12:49;11.98;;;4.20;;
71125;SDS011;58785;55.566;38.058;2024-01-15T09:15:15;11.30;;;5.17;;
71125;SDS011;58785;55.566;38.058;2024-01-15T09:17:40;10.80;;;3.88;;
71125;SDS011;58785;55.566;38.058;2024-01-15T09:20:06;13.90;;;4.70;;
71125;SDS011;58785;55.566;38.058;2024-01-15T09:22:33;13.23;;;3.97;;
71125;SDS011;58785;55.566;38.058;2024-01-15T09:24:59;11.25;;;4.40;;
71125;SDS011;58785;55.566;38.058;2024-01-15T09:27:24;11.97;;;4.83;;
71125;SDS011;58785;55.566;38.058;2024-01-15T09:29:53;14.50;;;4.68;;
71125;SDS011;58785;55.566;38.058;2024-01-15T09:32:19;12.90;;;4.70;;
71125;SDS011;58785;55.566;38.058;2024-01-15T09:34:45;10.47;;;4.30;;
71125;SDS011;58785;55.566;38.058;2024-01-15T09:37:11;10.55;;;4.22;;
71125;SDS011;58785;55.566;38.058;2024-01-15T09:39:39;13.48;;;4.05;;
71125;SDS011;58785;55.566;38.058;2024-01-15T09:42:05;11.00;;;3.80;;
71125;SDS011;58785;55.566;38.058;2024-01-15T09:44:31;11.27;;;3.90;;
71125;SDS011;58785;55.566;38.058;2024-01-15T09:46:57;13.45;;;4.43;;
71125;SDS011;58785;55.566;38.058;2024-01-15T09:49:23;13.83;;;4.57;;
71125;SDS011;58785;55.566;38.058;2024-01-15T09:51:49;11.73;;;3.55;;
71125;SDS011;58785;55.566;38.058;2024-01-15T09:54:15;9.95;;;3.83;;
71125;SDS011;58785;55.566;38.058;2024-01-15T09:56:46;10.37;;;4.53;;
71125;SDS011;58785;55.566;38.058;2024-01-15T09:59:15;18.00;;;5.30;;
71125;SDS011;58785;55.566;38.058;2024-01-15T10:01:46;13.82;;;4.97;;
71125;SDS011;58785;55.566;38.058;2024-01-15T10:04:13;11.95;;;4.03;;
71125;SDS011;58785;55.566;38.058;2024-01-15T10:06:41;8.55;;;3.17;;
71125;SDS011;58785;55.566;38.058;2024-01-15T10:09:14;11.57;;;4.20;;
71125;SDS011;58785;55.566;38.058;2024-01-15T10:11:43;13.05;;;4.38;;
71125;SDS011;58785;55.566;38.058;2024-01-15T10:14:10;13.50;;;4.60;;
71125;SDS011;58785;55.566;38.058;2024-01-15T10:16:43;13.10;;;4.28;;
71125;SDS011;58785;55.566;38.058;2024-01-15T10:19:09;11.57;;;4.50;;
71125;SDS011;58785;55.566;38.058;2024-01-15T10:21:35;11.17;;;3.53;;
71125;SDS011;58785;55.566;38.058;2024-01-15T10:24:02;10.50;;;3.65;;
71125;SDS011;58785;55.566;38.058;2024-01-15T10:26:29;12.02;;;4.15;;
71125;SDS011;58785;55.566;38.058;2024-01-15T10:28:55;11.20;;;5.32;;
71125;SDS011;58785;55.566;38.058;2024-01-15T10:31:21;14.27;;;4.23;;
71125;SDS011;58785;55.566;38.058;2024-01-15T10:33:48;10.85;;;4.68;;
71125;SDS011;58785;55.566;38.058;2024-01-15T10:36:14;13.13;;;3.58;;
71125;SDS011;58785;55.566;38.058;2024-01-15T10:38:42;13.73;;;4.38;;
71125;SDS011;58785;55.566;38.058;2024-01-15T10:41:09;15.53;;;5.17;;
71125;SDS011;58785;55.566;38.058;2024-01-15T10:43:34;9.57;;;4.05;;
71125;SDS011;58785;55.566;38.058;2024-01-15T10:46:00;12.80;;;4.80;;
71125;SDS011;58785;55.566;38.058;2024-01-15T10:48:27;12.68;;;4.95;;
71125;SDS011;58785;55.566;38.058;2024-01-15T10:50:53;10.85;;;3.78;;
71125;SDS011;58785;55.566;38.058;2024-01-15T10:53:19;12.10;;;4.70;;
71125;SDS011;58785;55.566;38.058;2024-01-15T10:55:48;14.77;;;5.00;;
71125;SDS011;58785;55.566;38.058;2024-01-15T10:58:15;11.50;;;4.00;;
71125;SDS011;58785;55.566;38.058;2024-01-15T11:00:43;14.05;;;4.22;;
71125;SDS011;58785;55.566;38.058;2024-01-15T11:03:09;11.52;;;4.38;;
71125;SDS011;58785;55.566;38.058;2024-01-15T11:05:39;13.60;;;4.72;;
71125;SDS011;58785;55.566;38.058;2024-01-15T11:08:07;9.90;;;3.73;;
71125;SDS011;58785;55.566;38.058;2024-01-15T11:10:47;14.38;;;4.60;;
71125;SDS011;58785;55.566;38.058;2024-01-15T11:13:20;11.32;;;4.10;;
71125;SDS011;58785;55.566;38.058;2024-01-15T11:16:02;10.90;;;4.05;;
71125;SDS011;58785;55.566;38.058;2024-01-15T11:18:34;11.30;;;3.33;;
71125;SDS011;58785;55.566;38.058;2024-01-15T11:26:31;8.73;;;3.45;;
71125;SDS011;58785;55.566;38.058;2024-01-15T11:29:02;12.15;;;3.83;;
71125;SDS011;58785;55.566;38.058;2024-01-15T11:34:07;10.57;;;4.37;;
71125;SDS011;58785;55.566;38.058;2024-01-15T11:37:07;13.60;;;4.80;;
71125;SDS011;58785;55.566;38.058;2024-01-15T11:41:56;11.73;;;3.33;;
71125;SDS011;58785;55.566;38.058;2024-01-15T11:44:28;11.68;;;4.15;;
71125;SDS011;58785;55.566;38.058;2024-01-15T11:52:22;12.68;;;4.30;;
71125;SDS011;58785;55.566;38.058;2024-01-15T11:55:33;13.57;;;4.57;;
71125;SDS011;58785;55.566;38.058;2024-01-15T12:00:16;10.50;;;3.50;;
71125;SDS011;58785;55.566;38.058;2024-01-15T12:02:43;11.13;;;5.18;;
71125;SDS011;58785;55.566;38.058;2024-01-15T12:05:10;11.65;;;3.78;;
71125;SDS011;58785;55.566;38.058;2024-01-15T12:07:40;14.90;;;4.32;;
71125;SDS011;58785;55.566;38.058;2024-01-15T12:10:17;15.45;;;3.92;;
71125;SDS011;58785;55.566;38.058;2024-01-15T12:15:26;11.80;;;4.95;;
71125;SDS011;58785;55.566;38.058;2024-01-15T12:17:54;12.50;;;4.60;;
71125;SDS011;58785;55.566;38.058;2024-01-15T12:20:23;10.88;;;3.63;;
71125;SDS011;58785;55.566;38.058;2024-01-15T12:22:49;11.90;;;4.18;;
71125;SDS011;58785;55.566;38.058;2024-01-15T12:25:15;15.70;;;4.53;;
71125;SDS011;58785;55.566;38.058;2024-01-15T12:27:40;12.43;;;4.30;;
71125;SDS011;58785;55.566;38.058;2024-01-15T12:30:06;14.50;;;4.43;;
71125;SDS011;58785;55.566;38.058;2024-01-15T12:32:35;13.63;;;5.00;;
71125;SDS011;58785;55.566;38.058;2024-01-15T12:35:01;11.40;;;4.22;;
71125;SDS011;58785;55.566;38.058;2024-01-15T12:37:27;11.40;;;5.07;;
71125;SDS011;58785;55.566;38.058;2024-01-15T12:39:52;9.73;;;3.50;;
71125;SDS011;58785;55.566;38.058;2024-01-15T12:42:20;10.43;;;3.93;;
71125;SDS011;58785;55.566;38.058;2024-01-15T12:44:47;13.45;;;4.40;;
71125;SDS011;58785;55.566;38.058;2024-01-15T12:47:12;12.10;;;5.07;;
71125;SDS011;58785;55.566;38.058;2024-01-15T12:49:39;9.50;;;3.80;;
71125;SDS011;58785;55.566;38.058;2024-01-15T12:52:08;9.30;;;3.88;;
71125;SDS011;58785;55.566;38.058;2024-01-15T12:54:34;9.90;;;4.18;;
71125;SDS011;58785;55.566;38.058;2024-01-15T12:57:00;13.90;;;4.53;;
71125;SDS011;58785;55.566;38.058;2024-01-15T12:59:26;11.73;;;4.60;;
71125;SDS011;58785;55.566;38.058;2024-01-15T13:01:52;13.85;;;4.57;;
71125;SDS011;58785;55.566;38.058;2024-01-15T13:04:24;12.18;;;4.07;;
71125;SDS011;58785;55.566;38.058;2024-01-15T13:06:50;11.23;;;4.47;;
71125;SDS011;58785;55.566;38.058;2024-01-15T13:09:17;14.10;;;5.07;;
71125;SDS011;58785;55.566;38.058;2024-01-15T13:11:46;9.93;;;4.28;;
71125;SDS011;58785;55.566;38.058;2024-01-15T13:14:12;12.63;;;5.43;;
71125;SDS011;58785;55.566;38.058;2024-01-15T13:16:41;12.50;;;4.45;;
71125;SDS011;58785;55.566;38.058;2024-01-15T13:19:08;13.73;;;4.35;;
71125;SDS011;58785;55.566;38.058;2024-01-15T13:21:39;8.47;;;3.40;;
71125;SDS011;58785;55.566;38.058;2024-01-15T13:24:06;12.02;;;4.75;;
71125;SDS011;58785;55.566;38.058;2024-01-15T13:26:32;13.60;;;4.72;;
71125;SDS011;58785;55.566;38.058;2024-01-15T13:29:02;13.40;;;4.40;;
71125;SDS011;58785;55.566;38.058;2024-01-15T13:31:34;23.23;;;4.70;;
71125;SDS011;58785;55.566;38.058;2024-01-15T13:34:00;11.10;;;4.03;;
71125;SDS011;58785;55.566;38.058;2024-01-15T13:36:26;13.75;;;5.38;;
71125;SDS011;58785;55.566;38.058;2024-01-15T13:38:52;14.73;;;5.32;;
71125;SDS011;58785;55.566;38.058;2024-01-15T13:41:21;14.00;;;5.72;;
71125;SDS011;58785;55.566;38.058;2024-01-15T13:43:52;9.75;;;4.13;;
71125;SDS011;58785;55.566;38.058;2024-01-15T13:46:19;14.03;;;4.97;;
71125;SDS011;58785;55.566;38.058;2024-01-15T13:48:47;12.35;;;4.95;;
71125;SDS011;58785;55.566;38.058;2024-01-15T13:51:12;13.48;;;4.35;;
71125;SDS011;58785;55.566;38.058;2024-01-15T13:53:38;14.03;;;5.23;;
71125;SDS011;58785;55.566;38.058;2024-01-15T13:56:04;13.25;;;5.03;;
71125;SDS011;58785;55.566;38.058;2024-01-15T13:58:31;9.52;;;3.70;;
71125;SDS011;58785;55.566;38.058;2024-01-15T14:00:58;12.77;;;4.55;;
71125;SDS011;58785;55.566;38.058;2024-01-15T14:03:24;17.45;;;5.55;;
71125;SDS011;58785;55.566;38.058;2024-01-15T14:05:51;12.37;;;4.57;;
71125;SDS011;58785;55.566;38.058;2024-01-15T14:08:17;16.08;;;5.00;;
71125;SDS011;58785;55.566;38.058;2024-01-15T14:10:42;13.68;;;3.85;;
71125;SDS011;58785;55.566;38.058;2024-01-15T14:13:08;13.57;;;4.23;;
71125;SDS011;58785;55.566;38.058;2024-01-15T14:15:34;13.23;;;5.03;;
71125;SDS011;58785;55.566;38.058;2024-01-15T14:18:00;17.60;;;4.43;;
71125;SDS011;58785;55.566;38.058;2024-01-15T14:20:26;13.40;;;4.93;;
71125;SDS011;58785;55.566;38.058;2024-01-15T14:22:52;14.50;;;4.68;;
71125;SDS011;58785;55.566;38.058;2024-01-15T14:25:19;12.23;;;4.45;;
71125;SDS011;58785;55.566;38.058;2024-01-15T14:27:45;16.17;;;5.37;;
71125;SDS011;58785;55.566;38.058;2024-01-15T14:30:11;13.95;;;5.38;;
71125;SDS011;58785;55.566;38.058;2024-01-15T14:32:38;14.73;;;5.63;;
71125;SDS011;58785;55.566;38.058;2024-01-15T14:35:05;14.93;;;4.97;;
71125;SDS011;58785;55.566;38.058;2024-01-15T14:37:31;13.18;;;4.53;;
71125;SDS011;58785;55.566;38.058;2024-01-15T14:39:56;12.20;;;3.17;;
71125;SDS011;58785;55.566;38.058;2024-01-15T14:42:22;10.80;;;4.30;;
71125;SDS011;58785;55.566;38.058;2024-01-15T14:44:49;14.30;;;4.82;;